Islamabad Weather



Islamabad's Current Weather

Temprature 23.24o clear sky

clear sky

Rain: 0 %

Min Temprature23.24o
Max Temprature23.24o
Humidity54
Wind Speed2.73 m/h
Sun Rise05:01:32
Sun Set19:07:20
Current Time: 24-May-2022 08:09:46
Lat/Lon: 33.7104, 73.1338




Islamabad's Geo Location



Islamabad's Weather Forecast

Time Overall Temp Min Temp Max Temp Humidity Wind Speed Rain
24-May-2022 (Tue)
11:00:00 clear sky 25.330 25.330 29.500 45 2.96 m/h 0 %
14:00:00 clear sky 29.420 29.420 32.510 32 4.72 m/h 0 %
17:00:00 clear sky 31.980 31.980 31.980 21 3.11 m/h 0 %
20:00:00 clear sky 27.670 27.670 27.670 28 0.64 m/h 0 %
23:00:00 clear sky 25.740 25.740 25.740 32 1.42 m/h 0 %
25-May-2022 (Wed)
02:00:00 clear sky 24.590 24.590 24.590 33 2.17 m/h 0 %
05:00:00 clear sky 23.800 23.800 23.800 34 2.6 m/h 0 %
08:00:00 clear sky 30.460 30.460 30.460 23 0.8 m/h 0 %
11:00:00 clear sky 34.430 34.430 34.430 18 4.09 m/h 0 %
14:00:00 clear sky 36.540 36.540 36.540 16 3.66 m/h 0 %
17:00:00 clear sky 36.550 36.550 36.550 15 2.88 m/h 0 %
20:00:00 clear sky 31.580 31.580 31.580 20 1.48 m/h 0 %
23:00:00 clear sky 29.290 29.290 29.290 23 1.52 m/h 0 %
26-May-2022 (Thu)
02:00:00 clear sky 27.810 27.810 27.810 25 2.33 m/h 0 %
05:00:00 clear sky 26.830 26.830 26.830 27 2.9 m/h 0 %
08:00:00 clear sky 33.750 33.750 33.750 18 1.73 m/h 0 %
11:00:00 clear sky 37.440 37.440 37.440 14 3.78 m/h 0 %
14:00:00 clear sky 39.650 39.650 39.650 12 2.9 m/h 0 %
17:00:00 clear sky 39.870 39.870 39.870 11 2.55 m/h 0 %
20:00:00 clear sky 34.070 34.070 34.070 14 1.39 m/h 0 %
23:00:00 clear sky 31.370 31.370 31.370 18 2.21 m/h 0 %
27-May-2022 (Fri)
02:00:00 clear sky 29.920 29.920 29.920 22 3.31 m/h 0 %
05:00:00 clear sky 29.360 29.360 29.360 21 3.58 m/h 0 %
08:00:00 clear sky 36.600 36.600 36.600 14 1.98 m/h 0 %
11:00:00 clear sky 40.070 40.070 40.070 11 3.38 m/h 0 %
14:00:00 clear sky 42.090 42.090 42.090 9 3.2 m/h 0 %
17:00:00 clear sky 41.980 41.980 41.980 9 2.41 m/h 0 %
20:00:00 clear sky 36.060 36.060 36.060 12 1.17 m/h 0 %
23:00:00 clear sky 33.370 33.370 33.370 15 3.63 m/h 0 %
28-May-2022 (Sat)
02:00:00 clear sky 31.930 31.930 31.930 16 4.06 m/h 0 %
05:00:00 scattered clouds 29.490 29.490 29.490 20 2.28 m/h 0 %
08:00:00 few clouds 36.360 36.360 36.360 14 0.94 m/h 0 %
11:00:00 clear sky 41.450 41.450 41.450 11 4.58 m/h 0 %
14:00:00 clear sky 43.420 43.420 43.420 10 5.35 m/h 0 %
17:00:00 scattered clouds 33.570 33.570 33.570 26 7.84 m/h 0 %
20:00:00 light rain 32.360 32.360 32.360 29 7.3 m/h 13 %
23:00:00 broken clouds 29.450 29.450 29.450 33 4.9 m/h 0 %
29-May-2022 (Sun)
02:00:00 overcast clouds 28.690 28.690 28.690 33 4.76 m/h 0 %
05:00:00 broken clouds 27.520 27.520 27.520 34 2.49 m/h 0 %
08:00:00 broken clouds 34.370 34.370 34.370 21 1.04 m/h 0 %


Islamabad's Tourist Spots

Historical Places in Islamabad

Famous Cities (61)